sensor_id;sensor_type;location;lat;lon;timestamp;temperature;humidity
10411;DHT22;5251;52.112;8.606;2022-12-31T00:01:34;15.60;99.90
10411;DHT22;5251;52.112;8.606;2022-12-31T00:04:00;15.70;99.90
10411;DHT22;5251;52.112;8.606;2022-12-31T00:06:33;15.70;99.90
10411;DHT22;5251;52.112;8.606;2022-12-31T00:09:02;15.60;99.90
10411;DHT22;5251;52.112;8.606;2022-12-31T00:11:29;15.60;99.90
10411;DHT22;5251;52.112;8.606;2022-12-31T00:13:56;15.60;99.90
10411;DHT22;5251;52.112;8.606;2022-12-31T00:16:24;15.60;99.90
10411;DHT22;5251;52.112;8.606;2022-12-31T00:18:53;15.60;99.90
10411;DHT22;5251;52.112;8.606;2022-12-31T00:21:20;15.60;99.90
10411;DHT22;5251;52.112;8.606;2022-12-31T00:23:46;15.60;99.90
10411;DHT22;5251;52.112;8.606;2022-12-31T00:26:18;15.50;99.90
10411;DHT22;5251;52.112;8.606;2022-12-31T00:28:45;15.60;99.90
10411;DHT22;5251;52.112;8.606;2022-12-31T00:31:12;15.60;99.90
10411;DHT22;5251;52.112;8.606;2022-12-31T00:33:39;15.50;99.90
10411;DHT22;5251;52.112;8.606;2022-12-31T00:38:35;15.50;99.90
10411;DHT22;5251;52.112;8.606;2022-12-31T00:41:01;15.50;99.90
10411;DHT22;5251;52.112;8.606;2022-12-31T00:43:26;15.50;99.90
10411;DHT22;5251;52.112;8.606;2022-12-31T00:45:52;15.50;99.90
10411;DHT22;5251;52.112;8.606;2022-12-31T00:48:18;15.50;99.90
10411;DHT22;5251;52.112;8.606;2022-12-31T00:50:44;15.40;99.90
10411;DHT22;5251;52.112;8.606;2022-12-31T00:53:09;15.40;99.90
10411;DHT22;5251;52.112;8.606;2022-12-31T00:55:35;15.40;99.90
10411;DHT22;5251;52.112;8.606;2022-12-31T00:58:01;15.40;99.90
10411;DHT22;5251;52.112;8.606;2022-12-31T01:00:26;15.40;99.90
10411;DHT22;5251;52.112;8.606;2022-12-31T01:02:52;15.40;99.90
10411;DHT22;5251;52.112;8.606;2022-12-31T01:05:17;15.40;99.90
10411;DHT22;5251;52.112;8.606;2022-12-31T01:07:43;15.50;99.90
10411;DHT22;5251;52.112;8.606;2022-12-31T01:10:09;15.40;99.90
10411;DHT22;5251;52.112;8.606;2022-12-31T01:12:35;15.40;99.90
10411;DHT22;5251;52.112;8.606;2022-12-31T01:15:00;15.40;99.90
10411;DHT22;5251;52.112;8.606;2022-12-31T01:17:26;15.40;99.90
10411;DHT22;5251;52.112;8.606;2022-12-31T01:19:52;15.40;99.90
10411;DHT22;5251;52.112;8.606;2022-12-31T01:22:17;15.40;99.90
10411;DHT22;5251;52.112;8.606;2022-12-31T01:24:43;15.40;99.90
10411;DHT22;5251;52.112;8.606;2022-12-31T01:27:08;15.40;99.90
10411;DHT22;5251;52.112;8.606;2022-12-31T01:29:34;15.40;99.90
10411;DHT22;5251;52.112;8.606;2022-12-31T01:32:00;15.40;99.90
10411;DHT22;5251;52.112;8.606;2022-12-31T01:34:25;15.40;99.90
10411;DHT22;5251;52.112;8.606;2022-12-31T01:36:51;15.30;99.90
10411;DHT22;5251;52.112;8.606;2022-12-31T01:39:16;15.40;99.90
10411;DHT22;5251;52.112;8.606;2022-12-31T01:41:43;15.40;99.90
10411;DHT22;5251;52.112;8.606;2022-12-31T01:46:51;15.40;99.90
10411;DHT22;5251;52.112;8.606;2022-12-31T01:50:00;15.30;99.90
10411;DHT22;5251;52.112;8.606;2022-12-31T01:52:50;15.40;99.90
10411;DHT22;5251;52.112;8.606;2022-12-31T01:55:15;15.40;99.90
10411;DHT22;5251;52.112;8.606;2022-12-31T01:57:43;15.40;99.90
10411;DHT22;5251;52.112;8.606;2022-12-31T02:00:11;15.40;99.90
10411;DHT22;5251;52.112;8.606;2022-12-31T02:02:37;15.40;99.90
10411;DHT22;5251;52.112;8.606;2022-12-31T02:05:11;15.40;99.90
10411;DHT22;5251;52.112;8.606;2022-12-31T02:07:38;15.40;99.90
10411;DHT22;5251;52.112;8.606;2022-12-31T02:10:04;15.40;99.90
10411;DHT22;5251;52.112;8.606;2022-12-31T02:12:30;15.40;99.90
10411;DHT22;5251;52.112;8.606;2022-12-31T02:14:55;15.40;99.90
10411;DHT22;5251;52.112;8.606;2022-12-31T02:23:23;15.40;99.90
10411;DHT22;5251;52.112;8.606;2022-12-31T02:31:38;15.30;99.90
10411;DHT22;5251;52.112;8.606;2022-12-31T02:34:12;15.30;99.90
10411;DHT22;5251;52.112;8.606;2022-12-31T02:36:43;15.30;99.90
10411;DHT22;5251;52.112;8.606;2022-12-31T02:39:10;15.30;99.90
10411;DHT22;5251;52.112;8.606;2022-12-31T02:41:37;15.30;99.90
10411;DHT22;5251;52.112;8.606;2022-12-31T02:44:27;15.20;99.90
10411;DHT22;5251;52.112;8.606;2022-12-31T02:53:01;15.30;99.90
10411;DHT22;5251;52.112;8.606;2022-12-31T02:55:53;15.30;99.90
10411;DHT22;5251;52.112;8.606;2022-12-31T02:58:37;15.30;99.90
10411;DHT22;5251;52.112;8.606;2022-12-31T03:01:26;15.30;99.90
10411;DHT22;5251;52.112;8.606;2022-12-31T03:04:25;15.30;99.90
10411;DHT22;5251;52.112;8.606;2022-12-31T03:09:27;15.30;99.90
10411;DHT22;5251;52.112;8.606;2022-12-31T03:11:53;15.30;99.90
10411;DHT22;5251;52.112;8.606;2022-12-31T03:14:37;15.30;99.90
10411;DHT22;5251;52.112;8.606;2022-12-31T03:17:03;15.30;99.90
10411;DHT22;5251;52.112;8.606;2022-12-31T03:19:29;15.30;99.90
10411;DHT22;5251;52.112;8.606;2022-12-31T03:22:13;15.30;99.90
10411;DHT22;5251;52.112;8.606;2022-12-31T03:24:57;15.40;99.90
10411;DHT22;5251;52.112;8.606;2022-12-31T03:27:43;15.40;99.90
10411;DHT22;5251;52.112;8.606;2022-12-31T03:30:09;15.40;99.90
10411;DHT22;5251;52.112;8.606;2022-12-31T03:32:35;15.40;99.90
10411;DHT22;5251;52.112;8.606;2022-12-31T03:35:01;15.40;99.90
10411;DHT22;5251;52.112;8.606;2022-12-31T03:37:26;15.40;99.90
10411;DHT22;5251;52.112;8.606;2022-12-31T03:39:52;15.40;99.90
10411;DHT22;5251;52.112;8.606;2022-12-31T03:42:17;15.50;99.90
10411;DHT22;5251;52.112;8.606;2022-12-31T03:44:43;15.50;99.90
10411;DHT22;5251;52.112;8.606;2022-12-31T03:47:08;15.50;99.90
10411;DHT22;5251;52.112;8.606;2022-12-31T03:49:34;15.50;99.90
10411;DHT22;5251;52.112;8.606;2022-12-31T03:52:00;15.60;99.90
10411;DHT22;5251;52.112;8.606;2022-12-31T03:54:27;15.60;99.90
10411;DHT22;5251;52.112;8.606;2022-12-31T03:56:53;15.60;99.90
10411;DHT22;5251;52.112;8.606;2022-12-31T03:59:18;15.60;99.90
10411;DHT22;5251;52.112;8.606;2022-12-31T04:01:44;15.60;99.90
10411;DHT22;5251;52.112;8.606;2022-12-31T04:04:09;15.70;99.90
10411;DHT22;5251;52.112;8.606;2022-12-31T04:06:35;15.70;99.90
10411;DHT22;5251;52.112;8.606;2022-12-31T04:09:00;15.70;99.90
10411;DHT22;5251;52.112;8.606;2022-12-31T04:11:26;15.70;99.90
10411;DHT22;5251;52.112;8.606;2022-12-31T04:13:52;15.70;99.90
10411;DHT22;5251;52.112;8.606;2022-12-31T04:16:17;15.70;99.90
10411;DHT22;5251;52.112;8.606;2022-12-31T04:18:43;15.70;99.90
10411;DHT22;5251;52.112;8.606;2022-12-31T04:21:08;15.70;99.90
10411;DHT22;5251;52.112;8.606;2022-12-31T04:23:34;15.70;99.90
10411;DHT22;5251;52.112;8.606;2022-12-31T04:25:59;15.70;99.90
10411;DHT22;5251;52.112;8.606;2022-12-31T04:28:25;15.70;99.90
10411;DHT22;5251;52.112;8.606;2022-12-31T04:30:50;15.60;99.90
10411;DHT22;5251;52.112;8.606;2022-12-31T04:33:16;15.60;99.90
10411;DHT22;5251;52.112;8.606;2022-12-31T04:35:42;15.60;99.90
10411;DHT22;5251;52.112;8.606;2022-12-31T04:38:08;15.60;99.90
10411;DHT22;5251;52.112;8.606;2022-12-31T04:40:33;15.60;99.90
10411;DHT22;5251;52.112;8.606;2022-12-31T04:42:59;15.50;99.90
10411;DHT22;5251;52.112;8.606;2022-12-31T04:45:25;15.50;99.90
10411;DHT22;5251;52.112;8.606;2022-12-31T04:47:50;15.50;99.90
10411;DHT22;5251;52.112;8.606;2022-12-31T04:50:16;15.40;99.90
10411;DHT22;5251;52.112;8.606;2022-12-31T04:52:41;15.40;99.90
10411;DHT22;5251;52.112;8.606;2022-12-31T04:55:07;15.40;99.90
10411;DHT22;5251;52.112;8.606;2022-12-31T04:57:33;15.30;99.90
10411;DHT22;5251;52.112;8.606;2022-12-31T04:59:58;15.30;99.90
10411;DHT22;5251;52.112;8.606;2022-12-31T05:02:24;15.30;99.90
10411;DHT22;5251;52.112;8.606;2022-12-31T05:04:49;15.30;99.90
10411;DHT22;5251;52.112;8.606;2022-12-31T05:07:15;15.30;99.90
10411;DHT22;5251;52.112;8.606;2022-12-31T05:09:40;15.30;99.90
10411;DHT22;5251;52.112;8.606;2022-12-31T05:12:06;15.30;99.90
10411;DHT22;5251;52.112;8.606;2022-12-31T05:14:32;15.30;99.90
10411;DHT22;5251;52.112;8.606;2022-12-31T05:16:57;15.20;99.90
10411;DHT22;5251;52.112;8.606;2022-12-31T05:19:23;15.20;99.90
10411;DHT22;5251;52.112;8.606;2022-12-31T05:21:49;15.20;99.90
10411;DHT22;5251;52.112;8.606;2022-12-31T05:24:34;15.20;99.90
10411;DHT22;5251;52.112;8.606;2022-12-31T05:27:00;15.20;99.90
10411;DHT22;5251;52.112;8.606;2022-12-31T05:29:26;15.20;99.90
10411;DHT22;5251;52.112;8.606;2022-12-31T05:31:52;15.30;99.90
10411;DHT22;5251;52.112;8.606;2022-12-31T05:34:17;15.20;99.90
10411;DHT22;5251;52.112;8.606;2022-12-31T05:36:43;15.30;99.90
10411;DHT22;5251;52.112;8.606;2022-12-31T05:39:08;15.20;99.90
10411;DHT22;5251;52.112;8.606;2022-12-31T05:41:34;15.30;99.90
10411;DHT22;5251;52.112;8.606;2022-12-31T05:43:59;15.30;99.90
10411;DHT22;5251;52.112;8.606;2022-12-31T05:46:25;15.30;99.90
10411;DHT22;5251;52.112;8.606;2022-12-31T05:48:50;15.30;99.90
10411;DHT22;5251;52.112;8.606;2022-12-31T05:51:16;15.30;99.90
10411;DHT22;5251;52.112;8.606;2022-12-31T05:53:42;15.20;99.90
10411;DHT22;5251;52.112;8.606;2022-12-31T05:56:07;15.20;99.90
10411;DHT22;5251;52.112;8.606;2022-12-31T05:58:33;15.30;99.90
10411;DHT22;5251;52.112;8.606;2022-12-31T06:00:58;15.30;99.90
10411;DHT22;5251;52.112;8.606;2022-12-31T06:03:24;15.30;99.90
10411;DHT22;5251;52.112;8.606;2022-12-31T06:05:50;15.30;99.90
10411;DHT22;5251;52.112;8.606;2022-12-31T06:08:15;15.30;99.90
10411;DHT22;5251;52.112;8.606;2022-12-31T06:10:41;15.30;99.90
10411;DHT22;5251;52.112;8.606;2022-12-31T06:13:07;15.30;99.90
10411;DHT22;5251;52.112;8.606;2022-12-31T06:15:36;15.30;99.90
10411;DHT22;5251;52.112;8.606;2022-12-31T06:18:02;15.30;99.90
10411;DHT22;5251;52.112;8.606;2022-12-31T06:20:27;15.30;99.90
10411;DHT22;5251;52.112;8.606;2022-12-31T06:22:53;15.30;99.90
10411;DHT22;5251;52.112;8.606;2022-12-31T06:25:18;15.40;99.90
10411;DHT22;5251;52.112;8.606;2022-12-31T06:27:44;15.40;99.90
10411;DHT22;5251;52.112;8.606;2022-12-31T06:30:10;15.40;99.90
10411;DHT22;5251;52.112;8.606;2022-12-31T06:32:35;15.40;99.90
10411;DHT22;5251;52.112;8.606;2022-12-31T06:35:01;15.40;99.90
10411;DHT22;5251;52.112;8.606;2022-12-31T06:37:27;15.50;99.90
10411;DHT22;5251;52.112;8.606;2022-12-31T06:39:52;15.50;99.90
10411;DHT22;5251;52.112;8.606;2022-12-31T06:42:18;15.60;99.90
10411;DHT22;5251;52.112;8.606;2022-12-31T06:44:43;15.60;99.90
10411;DHT22;5251;52.112;8.606;2022-12-31T06:47:09;15.60;99.90
10411;DHT22;5251;52.112;8.606;2022-12-31T06:49:35;15.60;99.90
10411;DHT22;5251;52.112;8.606;2022-12-31T06:52:00;15.70;99.90
10411;DHT22;5251;52.112;8.606;2022-12-31T06:54:26;15.70;99.90
10411;DHT22;5251;52.112;8.606;2022-12-31T06:56:51;15.70;99.90
10411;DHT22;5251;52.112;8.606;2022-12-31T06:59:26;15.80;99.90
10411;DHT22;5251;52.112;8.606;2022-12-31T07:02:06;15.80;99.90
10411;DHT22;5251;52.112;8.606;2022-12-31T07:07:42;16.00;99.90
10411;DHT22;5251;52.112;8.606;2022-12-31T07:12:56;16.00;99.90
10411;DHT22;5251;52.112;8.606;2022-12-31T07:18:02;16.10;99.90
10411;DHT22;5251;52.112;8.606;2022-12-31T07:20:29;16.20;99.90
10411;DHT22;5251;52.112;8.606;2022-12-31T07:22:55;16.20;99.90
10411;DHT22;5251;52.112;8.606;2022-12-31T07:25:21;16.20;99.90
10411;DHT22;5251;52.112;8.606;2022-12-31T07:30:34;16.20;99.90
10411;DHT22;5251;52.112;8.606;2022-12-31T07:39:09;16.20;99.90
10411;DHT22;5251;52.112;8.606;2022-12-31T07:44:58;16.20;99.90
10411;DHT22;5251;52.112;8.606;2022-12-31T07:47:27;16.30;99.90
10411;DHT22;5251;52.112;8.606;2022-12-31T07:49:54;16.20;99.90
10411;DHT22;5251;52.112;8.606;2022-12-31T07:52:21;16.30;99.90
10411;DHT22;5251;52.112;8.606;2022-12-31T07:54:47;16.30;99.90
10411;DHT22;5251;52.112;8.606;2022-12-31T07:57:15;16.30;99.90
10411;DHT22;5251;52.112;8.606;2022-12-31T07:59:51;16.30;99.90
10411;DHT22;5251;52.112;8.606;2022-12-31T08:10:47;16.40;99.90
10411;DHT22;5251;52.112;8.606;2022-12-31T08:13:15;16.50;99.90
10411;DHT22;5251;52.112;8.606;2022-12-31T08:15:41;16.50;99.90
10411;DHT22;5251;52.112;8.606;2022-12-31T08:18:07;16.50;99.90
10411;DHT22;5251;52.112;8.606;2022-12-31T08:20:42;16.50;99.90
10411;DHT22;5251;52.112;8.606;2022-12-31T08:23:24;16.50;99.90
10411;DHT22;5251;52.112;8.606;2022-12-31T08:26:15;16.50;99.90
10411;DHT22;5251;52.112;8.606;2022-12-31T08:34:38;16.50;99.90
10411;DHT22;5251;52.112;8.606;2022-12-31T08:37:20;16.60;99.90
10411;DHT22;5251;52.112;8.606;2022-12-31T08:40:13;16.60;99.90
10411;DHT22;5251;52.112;8.606;2022-12-31T08:45:37;16.60;99.90
10411;DHT22;5251;52.112;8.606;2022-12-31T08:48:41;16.70;99.90
10411;DHT22;5251;52.112;8.606;2022-12-31T08:51:27;16.70;99.90
10411;DHT22;5251;52.112;8.606;2022-12-31T08:53:53;16.70;99.90
10411;DHT22;5251;52.112;8.606;2022-12-31T09:06:05;16.80;99.90
10411;DHT22;5251;52.112;8.606;2022-12-31T09:16:43;17.10;99.90
10411;DHT22;5251;52.112;8.606;2022-12-31T09:19:09;17.10;99.90
10411;DHT22;5251;52.112;8.606;2022-12-31T09:21:36;17.20;99.90
10411;DHT22;5251;52.112;8.606;2022-12-31T09:24:03;17.40;99.90
10411;DHT22;5251;52.112;8.606;2022-12-31T09:32:07;17.70;99.90
10411;DHT22;5251;52.112;8.606;2022-12-31T09:34:46;17.70;99.90
10411;DHT22;5251;52.112;8.606;2022-12-31T09:37:27;17.80;99.90
10411;DHT22;5251;52.112;8.606;2022-12-31T09:39:56;17.90;99.90
10411;DHT22;5251;52.112;8.606;2022-12-31T09:45:34;18.10;99.90
10411;DHT22;5251;52.112;8.606;2022-12-31T09:48:16;18.10;99.90
10411;DHT22;5251;52.112;8.606;2022-12-31T09:51:03;18.20;99.90
10411;DHT22;5251;52.112;8.606;2022-12-31T09:56:31;18.30;99.90
10411;DHT22;5251;52.112;8.606;2022-12-31T09:59:21;18.40;99.90
10411;DHT22;5251;52.112;8.606;2022-12-31T10:02:00;18.40;99.90
10411;DHT22;5251;52.112;8.606;2022-12-31T10:10:40;18.60;99.90
10411;DHT22;5251;52.112;8.606;2022-12-31T10:13:33;18.60;99.90
10411;DHT22;5251;52.112;8.606;2022-12-31T10:18:49;18.70;99.90
10411;DHT22;5251;52.112;8.606;2022-12-31T10:24:22;18.70;99.90
10411;DHT22;5251;52.112;8.606;2022-12-31T10:27:18;18.80;99.90
10411;DHT22;5251;52.112;8.606;2022-12-31T10:30:02;18.90;99.90
10411;DHT22;5251;52.112;8.606;2022-12-31T10:40:47;18.90;99.90
10411;DHT22;5251;52.112;8.606;2022-12-31T10:46:57;19.00;99.90
10411;DHT22;5251;52.112;8.606;2022-12-31T10:49:43;19.00;99.90
10411;DHT22;5251;52.112;8.606;2022-12-31T10:52:44;19.00;99.90
10411;DHT22;5251;52.112;8.606;2022-12-31T10:57:59;18.90;99.90
10411;DHT22;5251;52.112;8.606;2022-12-31T11:00:45;18.90;99.90
10411;DHT22;5251;52.112;8.606;2022-12-31T11:12:04;19.00;99.90
10411;DHT22;5251;52.112;8.606;2022-12-31T11:17:29;19.00;99.90
10411;DHT22;5251;52.112;8.606;2022-12-31T11:25:57;19.00;99.90
10411;DHT22;5251;52.112;8.606;2022-12-31T11:28:49;19.00;99.90
10411;DHT22;5251;52.112;8.606;2022-12-31T11:31:37;18.90;99.90
10411;DHT22;5251;52.112;8.606;2022-12-31T11:39:48;18.80;99.90
10411;DHT22;5251;52.112;8.606;2022-12-31T11:45:12;18.70;99.90
10411;DHT22;5251;52.112;8.606;2022-12-31T11:53:45;18.80;99.90
10411;DHT22;5251;52.112;8.606;2022-12-31T11:56:24;18.80;99.90
10411;DHT22;5251;52.112;8.606;2022-12-31T11:58:52;18.90;99.90
10411;DHT22;5251;52.112;8.606;2022-12-31T12:01:32;18.90;99.90
10411;DHT22;5251;52.112;8.606;2022-12-31T12:04:00;19.00;99.90
10411;DHT22;5251;52.112;8.606;2022-12-31T12:06:29;19.10;99.90
10411;DHT22;5251;52.112;8.606;2022-12-31T12:08:58;19.10;99.90
10411;DHT22;5251;52.112;8.606;2022-12-31T12:11:29;19.20;99.90
10411;DHT22;5251;52.112;8.606;2022-12-31T12:13:56;19.20;99.90
10411;DHT22;5251;52.112;8.606;2022-12-31T12:16:23;19.30;99.90
10411;DHT22;5251;52.112;8.606;2022-12-31T12:19:04;19.40;99.90
10411;DHT22;5251;52.112;8.606;2022-12-31T12:21:31;19.50;99.90
10411;DHT22;5251;52.112;8.606;2022-12-31T12:24:16;19.50;99.90
10411;DHT22;5251;52.112;8.606;2022-12-31T12:26:43;19.50;99.90
10411;DHT22;5251;52.112;8.606;2022-12-31T12:29:19;19.60;99.90
10411;DHT22;5251;52.112;8.606;2022-12-31T12:34:37;19.60;99.90
10411;DHT22;5251;52.112;8.606;2022-12-31T12:37:04;19.60;99.90
10411;DHT22;5251;52.112;8.606;2022-12-31T12:39:33;19.60;99.90
10411;DHT22;5251;52.112;8.606;2022-12-31T12:42:03;19.60;99.90
10411;DHT22;5251;52.112;8.606;2022-12-31T12:44:30;19.60;99.90
10411;DHT22;5251;52.112;8.606;2022-12-31T12:46:56;19.60;99.90
10411;DHT22;5251;52.112;8.606;2022-12-31T12:49:25;19.60;99.90
10411;DHT22;5251;52.112;8.606;2022-12-31T12:52:22;19.60;99.90
10411;DHT22;5251;52.112;8.606;2022-12-31T13:00:18;19.70;99.90
10411;DHT22;5251;52.112;8.606;2022-12-31T13:03:00;19.70;99.90
10411;DHT22;5251;52.112;8.606;2022-12-31T13:22:37;19.80;99.90
10411;DHT22;5251;52.112;8.606;2022-12-31T13:27:44;19.80;99.90
10411;DHT22;5251;52.112;8.606;2022-12-31T13:30:38;19.80;99.90
10411;DHT22;5251;52.112;8.606;2022-12-31T13:33:18;19.80;99.90
10411;DHT22;5251;52.112;8.606;2022-12-31T13:36:02;19.80;99.90
10411;DHT22;5251;52.112;8.606;2022-12-31T13:38:45;19.80;99.90
10411;DHT22;5251;52.112;8.606;2022-12-31T13:44:14;19.70;99.90
10411;DHT22;5251;52.112;8.606;2022-12-31T13:46:51;19.70;99.90
10411;DHT22;5251;52.112;8.606;2022-12-31T13:55:25;19.70;99.90
10411;DHT22;5251;52.112;8.606;2022-12-31T14:06:48;19.50;99.90
10411;DHT22;5251;52.112;8.606;2022-12-31T14:09:21;19.40;99.90
10411;DHT22;5251;52.112;8.606;2022-12-31T14:25:26;19.00;99.90
10411;DHT22;5251;52.112;8.606;2022-12-31T14:27:55;19.00;99.90
10411;DHT22;5251;52.112;8.606;2022-12-31T14:30:26;18.90;99.90
10411;DHT22;5251;52.112;8.606;2022-12-31T14:33:16;18.90;99.90
10411;DHT22;5251;52.112;8.606;2022-12-31T14:52:34;18.80;99.90
10411;DHT22;5251;52.112;8.606;2022-12-31T14:57:36;18.80;99.90
10411;DHT22;5251;52.112;8.606;2022-12-31T15:03:06;18.70;99.90
10411;DHT22;5251;52.112;8.606;2022-12-31T15:09:22;18.70;99.90
10411;DHT22;5251;52.112;8.606;2022-12-31T15:22:48;18.40;99.90
10411;DHT22;5251;52.112;8.606;2022-12-31T15:25:33;18.40;99.90
10411;DHT22;5251;52.112;8.606;2022-12-31T15:28:04;18.30;99.90
10411;DHT22;5251;52.112;8.606;2022-12-31T15:30:45;18.20;99.90
10411;DHT22;5251;52.112;8.606;2022-12-31T15:33:30;18.30;99.90
10411;DHT22;5251;52.112;8.606;2022-12-31T15:35:57;18.20;99.90
10411;DHT22;5251;52.112;8.606;2022-12-31T15:38:39;18.10;99.90
10411;DHT22;5251;52.112;8.606;2022-12-31T15:43:53;18.10;99.90
10411;DHT22;5251;52.112;8.606;2022-12-31T15:46:28;18.00;99.90
10411;DHT22;5251;52.112;8.606;2022-12-31T15:48:58;18.00;99.90
10411;DHT22;5251;52.112;8.606;2022-12-31T15:51:43;18.00;99.90
10411;DHT22;5251;52.112;8.606;2022-12-31T15:54:32;17.90;99.90
10411;DHT22;5251;52.112;8.606;2022-12-31T15:56:59;17.90;99.90
10411;DHT22;5251;52.112;8.606;2022-12-31T15:59:26;17.90;99.90
10411;DHT22;5251;52.112;8.606;2022-12-31T16:01:54;17.80;99.90
10411;DHT22;5251;52.112;8.606;2022-12-31T16:04:28;17.80;99.90
10411;DHT22;5251;52.112;8.606;2022-12-31T16:07:00;17.80;99.90
10411;DHT22;5251;52.112;8.606;2022-12-31T16:09:30;17.80;99.90
10411;DHT22;5251;52.112;8.606;2022-12-31T16:11:59;17.80;99.90
10411;DHT22;5251;52.112;8.606;2022-12-31T16:16:59;17.80;99.90
10411;DHT22;5251;52.112;8.606;2022-12-31T16:19:34;17.70;99.90
10411;DHT22;5251;52.112;8.606;2022-12-31T16:22:16;17.80;99.90
10411;DHT22;5251;52.112;8.606;2022-12-31T16:24:42;17.70;99.90
10411;DHT22;5251;52.112;8.606;2022-12-31T16:27:15;17.70;99.90
10411;DHT22;5251;52.112;8.606;2022-12-31T16:29:46;17.70;99.90
10411;DHT22;5251;52.112;8.606;2022-12-31T16:32:14;17.70;99.90
10411;DHT22;5251;52.112;8.606;2022-12-31T16:34:40;17.70;99.90
10411;DHT22;5251;52.112;8.606;2022-12-31T16:37:13;17.70;99.90
10411;DHT22;5251;52.112;8.606;2022-12-31T16:40:07;17.70;99.90
10411;DHT22;5251;52.112;8.606;2022-12-31T16:42:36;17.70;99.90
10411;DHT22;5251;52.112;8.606;2022-12-31T16:45:37;17.70;99.90
10411;DHT22;5251;52.112;8.606;2022-12-31T16:48:14;17.70;99.90
10411;DHT22;5251;52.112;8.606;2022-12-31T16:50:45;17.70;99.90
10411;DHT22;5251;52.112;8.606;2022-12-31T16:53:15;17.70;99.90
10411;DHT22;5251;52.112;8.606;2022-12-31T16:55:42;17.70;99.90
10411;DHT22;5251;52.112;8.606;2022-12-31T16:58:23;17.70;99.90
10411;DHT22;5251;52.112;8.606;2022-12-31T17:00:50;17.70;99.90
10411;DHT22;5251;52.112;8.606;2022-12-31T17:03:20;17.70;99.90
10411;DHT22;5251;52.112;8.606;2022-12-31T17:06:15;17.70;99.90
10411;DHT22;5251;52.112;8.606;2022-12-31T17:11:35;17.70;99.90
10411;DHT22;5251;52.112;8.606;2022-12-31T17:16:37;17.60;99.90
10411;DHT22;5251;52.112;8.606;2022-12-31T17:19:04;17.50;99.90
10411;DHT22;5251;52.112;8.606;2022-12-31T17:21:30;17.60;99.90
10411;DHT22;5251;52.112;8.606;2022-12-31T17:24:03;17.50;99.90
10411;DHT22;5251;52.112;8.606;2022-12-31T17:26:31;17.40;99.90
10411;DHT22;5251;52.112;8.606;2022-12-31T17:28:59;17.40;99.90
10411;DHT22;5251;52.112;8.606;2022-12-31T17:34:19;17.40;99.90
10411;DHT22;5251;52.112;8.606;2022-12-31T17:36:58;17.30;99.90
10411;DHT22;5251;52.112;8.606;2022-12-31T17:39:25;17.30;99.90
10411;DHT22;5251;52.112;8.606;2022-12-31T17:41:52;17.20;99.90
10411;DHT22;5251;52.112;8.606;2022-12-31T17:44:22;17.20;99.90
10411;DHT22;5251;52.112;8.606;2022-12-31T17:46:48;17.20;99.90
10411;DHT22;5251;52.112;8.606;2022-12-31T17:49:14;17.20;99.90
10411;DHT22;5251;52.112;8.606;2022-12-31T17:51:40;17.20;99.90
10411;DHT22;5251;52.112;8.606;2022-12-31T17:54:13;17.20;99.90
10411;DHT22;5251;52.112;8.606;2022-12-31T17:56:39;17.20;99.90
10411;DHT22;5251;52.112;8.606;2022-12-31T17:59:05;17.20;99.90
10411;DHT22;5251;52.112;8.606;2022-12-31T18:01:31;17.10;99.90
10411;DHT22;5251;52.112;8.606;2022-12-31T18:03:57;17.10;99.90
10411;DHT22;5251;52.112;8.606;2022-12-31T18:06:23;17.20;99.90
10411;DHT22;5251;52.112;8.606;2022-12-31T18:08:49;17.20;99.90
10411;DHT22;5251;52.112;8.606;2022-12-31T18:11:18;17.20;99.90
10411;DHT22;5251;52.112;8.606;2022-12-31T18:13:45;17.20;99.90
10411;DHT22;5251;52.112;8.606;2022-12-31T18:16:10;17.20;99.90
10411;DHT22;5251;52.112;8.606;2022-12-31T18:18:36;17.20;99.90
10411;DHT22;5251;52.112;8.606;2022-12-31T18:21:28;17.20;99.90
10411;DHT22;5251;52.112;8.606;2022-12-31T18:23:54;17.20;99.90
10411;DHT22;5251;52.112;8.606;2022-12-31T18:26:21;17.20;99.90
10411;DHT22;5251;52.112;8.606;2022-12-31T18:28:48;17.20;99.90
10411;DHT22;5251;52.112;8.606;2022-12-31T18:33:42;17.30;99.90
10411;DHT22;5251;52.112;8.606;2022-12-31T18:36:13;17.30;99.90
10411;DHT22;5251;52.112;8.606;2022-12-31T18:38:39;17.30;99.90
10411;DHT22;5251;52.112;8.606;2022-12-31T18:41:06;17.30;99.90
10411;DHT22;5251;52.112;8.606;2022-12-31T18:43:32;17.30;99.90
10411;DHT22;5251;52.112;8.606;2022-12-31T18:45:58;17.40;99.90
10411;DHT22;5251;52.112;8.606;2022-12-31T18:48:23;17.40;99.90
10411;DHT22;5251;52.112;8.606;2022-12-31T18:50:49;17.40;99.90
10411;DHT22;5251;52.112;8.606;2022-12-31T18:53:17;17.40;99.90
10411;DHT22;5251;52.112;8.606;2022-12-31T18:55:52;17.40;99.90
10411;DHT22;5251;52.112;8.606;2022-12-31T18:58:18;17.40;99.90
10411;DHT22;5251;52.112;8.606;2022-12-31T19:00:45;17.40;99.90
10411;DHT22;5251;52.112;8.606;2022-12-31T19:03:16;17.40;99.90
10411;DHT22;5251;52.112;8.606;2022-12-31T19:05:43;17.40;99.90
10411;DHT22;5251;52.112;8.606;2022-12-31T19:08:10;17.40;99.70
10411;DHT22;5251;52.112;8.606;2022-12-31T19:10:35;17.40;99.60
10411;DHT22;5251;52.112;8.606;2022-12-31T19:13:01;17.40;99.30
10411;DHT22;5251;52.112;8.606;2022-12-31T19:15:31;17.40;99.10
10411;DHT22;5251;52.112;8.606;2022-12-31T19:18:01;17.40;99.10
10411;DHT22;5251;52.112;8.606;2022-12-31T19:20:27;17.40;99.10
10411;DHT22;5251;52.112;8.606;2022-12-31T19:22:54;17.50;99.30
10411;DHT22;5251;52.112;8.606;2022-12-31T19:25:30;17.40;98.90
10411;DHT22;5251;52.112;8.606;2022-12-31T19:27:58;17.40;98.40
10411;DHT22;5251;52.112;8.606;2022-12-31T19:30:26;17.50;98.40
10411;DHT22;5251;52.112;8.606;2022-12-31T19:32:53;17.50;98.30
10411;DHT22;5251;52.112;8.606;2022-12-31T19:35:20;17.50;98.10
10411;DHT22;5251;52.112;8.606;2022-12-31T19:37:47;17.50;97.90
10411;DHT22;5251;52.112;8.606;2022-12-31T19:40:19;17.50;98.00
10411;DHT22;5251;52.112;8.606;2022-12-31T19:42:46;17.50;97.90
10411;DHT22;5251;52.112;8.606;2022-12-31T19:45:13;17.50;97.60
10411;DHT22;5251;52.112;8.606;2022-12-31T19:47:39;17.40;97.60
10411;DHT22;5251;52.112;8.606;2022-12-31T19:50:05;17.50;97.50
10411;DHT22;5251;52.112;8.606;2022-12-31T19:52:31;17.50;97.40
10411;DHT22;5251;52.112;8.606;2022-12-31T19:54:56;17.40;96.90
10411;DHT22;5251;52.112;8.606;2022-12-31T19:57:22;17.40;96.60
10411;DHT22;5251;52.112;8.606;2022-12-31T19:59:47;17.40;96.40
10411;DHT22;5251;52.112;8.606;2022-12-31T20:02:13;17.40;96.20
10411;DHT22;5251;52.112;8.606;2022-12-31T20:04:39;17.40;95.80
10411;DHT22;5251;52.112;8.606;2022-12-31T20:07:04;17.40;95.70
10411;DHT22;5251;52.112;8.606;2022-12-31T20:09:30;17.40;95.80
10411;DHT22;5251;52.112;8.606;2022-12-31T20:11:56;17.40;96.00
10411;DHT22;5251;52.112;8.606;2022-12-31T20:14:21;17.40;95.50
10411;DHT22;5251;52.112;8.606;2022-12-31T20:16:47;17.40;95.30
10411;DHT22;5251;52.112;8.606;2022-12-31T20:19:12;17.40;95.10
10411;DHT22;5251;52.112;8.606;2022-12-31T20:21:38;17.40;95.00
10411;DHT22;5251;52.112;8.606;2022-12-31T20:24:04;17.40;95.10
10411;DHT22;5251;52.112;8.606;2022-12-31T20:26:30;17.40;94.70
10411;DHT22;5251;52.112;8.606;2022-12-31T20:28:55;17.40;95.10